createdAt,value
2018-05-09T00:00:11.656Z,15.36
2018-05-09T00:01:11.652Z,15.27
2018-05-09T00:02:11.654Z,15.24
2018-05-09T00:03:11.639Z,15.07
2018-05-09T00:04:11.634Z,15.18
2018-05-09T00:05:11.628Z,15.04
2018-05-09T00:06:11.624Z,14.97
2018-05-09T00:07:11.618Z,15.07
2018-05-09T00:08:11.612Z,15.09
2018-05-09T00:09:11.606Z,15.06
2018-05-09T00:10:11.600Z,15.00
2018-05-09T00:11:11.594Z,15.04
2018-05-09T00:12:11.589Z,15.02
2018-05-09T00:13:11.583Z,15.03
2018-05-09T00:14:11.577Z,14.97
2018-05-09T00:15:11.570Z,14.92
2018-05-09T00:16:11.565Z,14.96
2018-05-09T00:17:11.560Z,15.00
2018-05-09T00:18:11.553Z,15.03
2018-05-09T00:19:11.547Z,15.03
2018-05-09T00:20:11.541Z,15.07
2018-05-09T00:21:11.537Z,15.06
2018-05-09T00:22:11.530Z,15.09
2018-05-09T00:23:11.526Z,15.14
2018-05-09T00:24:11.517Z,15.09
2018-05-09T00:25:11.512Z,15.03
2018-05-09T00:26:11.506Z,14.99
2018-05-09T00:27:11.499Z,15.03
2018-05-09T00:28:11.493Z,14.99
2018-05-09T00:29:11.489Z,15.03
2018-05-09T00:30:11.484Z,14.94
2018-05-09T00:31:11.474Z,14.96
2018-05-09T00:32:11.469Z,14.94
2018-05-09T00:33:11.463Z,14.82
2018-05-09T00:34:11.457Z,14.84
2018-05-09T00:35:11.449Z,14.78
2018-05-09T00:36:11.446Z,14.81
2018-05-09T00:37:11.437Z,14.82
2018-05-09T00:38:11.431Z,14.89
2018-05-09T00:39:11.426Z,14.85
2018-05-09T00:40:11.420Z,14.88
2018-05-09T00:41:11.412Z,14.94
2018-05-09T00:42:11.406Z,15.03
2018-05-09T00:43:11.399Z,14.99
2018-05-09T00:44:11.392Z,14.99
2018-05-09T00:45:11.386Z,15.00
2018-05-09T00:46:11.385Z,15.02
2018-05-09T00:47:11.373Z,15.04
2018-05-09T00:48:11.367Z,14.97
2018-05-09T00:49:11.366Z,14.97
2018-05-09T00:50:11.390Z,14.97
2018-05-09T00:51:11.352Z,14.92
2018-05-09T00:52:11.342Z,14.92
2018-05-09T00:53:11.336Z,14.91
2018-05-09T00:54:11.329Z,14.79
2018-05-09T00:55:11.323Z,14.85
2018-05-09T00:56:11.409Z,14.77
2018-05-09T00:57:11.311Z,14.79
2018-05-09T00:58:11.305Z,14.78
2018-05-09T00:59:11.297Z,14.79
2018-05-09T01:00:11.292Z,14.68
2018-05-09T01:01:11.286Z,14.78
2018-05-09T01:02:11.280Z,14.77
2018-05-09T01:03:11.273Z,14.70
2018-05-09T01:04:11.270Z,14.70
2018-05-09T01:05:11.261Z,14.70
2018-05-09T01:06:11.255Z,14.72
2018-05-09T01:07:11.248Z,14.72
2018-05-09T01:08:11.242Z,14.73
2018-05-09T01:09:11.236Z,14.77
2018-05-09T01:10:11.231Z,14.72
2018-05-09T01:11:11.224Z,14.69
2018-05-09T01:12:11.217Z,14.69
2018-05-09T01:13:11.211Z,14.65
2018-05-09T01:14:11.205Z,14.59
2018-05-09T01:15:11.198Z,14.50
2018-05-09T01:16:11.193Z,14.50
2018-05-09T01:17:11.186Z,14.41
2018-05-09T01:18:11.183Z,14.45
2018-05-09T01:19:11.173Z,14.53
2018-05-09T01:20:11.167Z,14.53
2018-05-09T01:21:11.161Z,14.45
2018-05-09T01:22:11.195Z,14.51
2018-05-09T01:23:11.149Z,14.53
2018-05-09T01:24:11.142Z,14.51
2018-05-09T01:25:11.136Z,14.58
2018-05-09T01:26:11.134Z,14.63
2018-05-09T01:27:11.122Z,14.54
2018-05-09T01:28:11.116Z,14.63
2018-05-09T01:29:11.110Z,14.51
2018-05-09T01:30:11.103Z,14.63
2018-05-09T01:31:11.098Z,14.48
2018-05-09T01:32:11.090Z,14.48
2018-05-09T01:33:11.084Z,14.32
2018-05-09T01:34:11.078Z,14.30
2018-05-09T01:35:11.071Z,14.30
2018-05-09T01:36:11.065Z,14.32
2018-05-09T01:37:11.059Z,14.17
2018-05-09T01:38:11.053Z,14.07
2018-05-09T01:39:11.045Z,14.05
2018-05-09T01:40:11.040Z,14.05
2018-05-09T01:41:11.033Z,13.92
2018-05-09T01:42:11.030Z,13.89
2018-05-09T01:43:11.020Z,13.86
2018-05-09T01:44:11.014Z,13.85
2018-05-09T01:45:11.008Z,13.83
2018-05-09T01:46:11.005Z,13.78
2018-05-09T01:47:10.999Z,13.70
2018-05-09T01:48:10.989Z,13.68
2018-05-09T01:49:10.987Z,13.70
2018-05-09T01:50:10.977Z,13.57
2018-05-09T01:51:10.969Z,13.59
2018-05-09T01:52:10.964Z,13.47
2018-05-09T01:53:10.957Z,13.52
2018-05-09T01:54:10.951Z,13.41
2018-05-09T01:55:10.944Z,13.35
2018-05-09T01:56:11.011Z,13.37
2018-05-09T01:57:10.931Z,13.37
2018-05-09T01:58:10.925Z,13.35
2018-05-09T01:59:10.922Z,13.27
2018-05-09T02:00:10.911Z,13.30
2018-05-09T02:01:10.904Z,13.31
2018-05-09T02:02:10.898Z,13.30
2018-05-09T02:03:10.892Z,13.25
2018-05-09T02:04:10.884Z,13.23
2018-05-09T02:05:10.877Z,13.22
2018-05-09T02:06:10.969Z,13.30
2018-05-09T02:07:10.864Z,13.28
2018-05-09T02:08:10.858Z,13.35
2018-05-09T02:09:10.855Z,13.30
2018-05-09T02:10:10.844Z,13.27
2018-05-09T02:11:10.837Z,13.27
2018-05-09T02:12:10.830Z,13.25
2018-05-09T02:13:10.823Z,13.23
2018-05-09T02:14:10.817Z,13.22
2018-05-09T02:15:10.848Z,13.25
2018-05-09T02:16:10.807Z,13.22
2018-05-09T02:17:10.797Z,13.35
2018-05-09T02:18:10.789Z,13.35
2018-05-09T02:19:10.783Z,13.41
2018-05-09T02:20:10.775Z,13.52
2018-05-09T02:21:10.768Z,13.54
2018-05-09T02:22:10.762Z,13.50
2018-05-09T02:23:10.754Z,13.59
2018-05-09T02:24:10.787Z,13.60
2018-05-09T02:25:10.741Z,13.68
2018-05-09T02:26:10.734Z,13.70
2018-05-09T02:27:10.726Z,13.75
2018-05-09T02:28:10.720Z,13.77
2018-05-09T02:29:10.714Z,13.74
2018-05-09T02:30:10.710Z,13.74
2018-05-09T02:31:10.715Z,13.75
2018-05-09T02:32:10.691Z,13.72
2018-05-09T02:33:10.684Z,13.78
2018-05-09T02:34:10.681Z,13.72
2018-05-09T02:35:10.687Z,13.65
2018-05-09T02:36:10.663Z,13.68
2018-05-09T02:37:10.656Z,13.65
2018-05-09T02:38:10.651Z,13.60
2018-05-09T02:39:10.642Z,13.67
2018-05-09T02:40:10.635Z,13.59
2018-05-09T02:41:10.629Z,13.59
2018-05-09T02:42:10.622Z,13.53
2018-05-09T02:43:10.615Z,13.47
2018-05-09T02:44:10.608Z,13.38
2018-05-09T02:45:10.601Z,13.35
2018-05-09T02:46:10.596Z,13.27
2018-05-09T02:47:10.588Z,13.16
2018-05-09T02:48:10.581Z,13.11
2018-05-09T02:49:10.574Z,12.98
2018-05-09T02:50:10.567Z,13.08
2018-05-09T02:51:10.560Z,12.98
2018-05-09T02:52:10.553Z,13.12
2018-05-09T02:53:10.547Z,13.15
2018-05-09T02:54:10.540Z,13.09
2018-05-09T02:55:10.533Z,13.12
2018-05-09T02:56:10.534Z,13.01
2018-05-09T02:57:10.519Z,13.00
2018-05-09T02:58:10.513Z,12.93
2018-05-09T02:59:10.510Z,12.95
2018-05-09T03:00:10.500Z,12.91
2018-05-09T03:01:10.491Z,12.90
2018-05-09T03:02:10.485Z,12.91
2018-05-09T03:03:10.478Z,12.87
2018-05-09T03:04:10.470Z,12.82
2018-05-09T03:05:10.464Z,12.76
2018-05-09T03:06:10.456Z,12.82
2018-05-09T03:07:10.449Z,12.72
2018-05-09T03:08:10.442Z,12.70
2018-05-09T03:09:10.434Z,12.75
2018-05-09T03:10:10.428Z,12.73
2018-05-09T03:11:10.421Z,12.67
2018-05-09T03:12:10.413Z,12.67
2018-05-09T03:13:10.406Z,12.61
2018-05-09T03:14:10.398Z,12.54
2018-05-09T03:15:10.390Z,12.53
2018-05-09T03:16:10.384Z,12.54
2018-05-09T03:17:10.377Z,12.53
2018-05-09T03:18:10.370Z,12.54
2018-05-09T03:19:10.361Z,12.54
2018-05-09T03:20:10.359Z,12.58
2018-05-09T03:21:10.348Z,12.42
2018-05-09T03:22:10.341Z,12.40
2018-05-09T03:23:10.334Z,12.42
2018-05-09T03:24:10.326Z,12.45
2018-05-09T03:25:10.319Z,12.53
2018-05-09T03:26:10.312Z,12.45
2018-05-09T03:27:10.304Z,12.42
2018-05-09T03:28:10.298Z,12.55
2018-05-09T03:29:10.290Z,12.55
2018-05-09T03:30:10.291Z,12.76
2018-05-09T03:31:10.278Z,12.78
2018-05-09T03:32:10.268Z,12.78
2018-05-09T03:33:10.265Z,12.72
2018-05-09T03:34:10.254Z,12.79
2018-05-09T03:35:10.246Z,12.65
2018-05-09T03:36:10.241Z,12.64
2018-05-09T03:37:10.232Z,12.64
2018-05-09T03:38:10.225Z,12.67
2018-05-09T03:39:10.218Z,12.65
2018-05-09T03:40:10.211Z,12.67
2018-05-09T03:41:10.204Z,12.60
2018-05-09T03:42:10.197Z,12.54
2018-05-09T03:43:10.189Z,12.55
2018-05-09T03:44:10.182Z,12.53
2018-05-09T03:45:10.175Z,12.43
2018-05-09T03:46:10.168Z,12.45
2018-05-09T03:47:10.160Z,12.49
2018-05-09T03:48:10.153Z,12.40
2018-05-09T03:49:10.147Z,12.46
2018-05-09T03:50:10.138Z,12.43
2018-05-09T03:51:10.131Z,12.45
2018-05-09T03:52:10.124Z,12.47
2018-05-09T03:53:10.116Z,12.43
2018-05-09T03:54:10.109Z,12.36
2018-05-09T03:55:10.102Z,12.43
2018-05-09T03:56:10.094Z,12.49
2018-05-09T03:57:10.087Z,12.54
2018-05-09T03:58:10.079Z,12.58
2018-05-09T03:59:10.073Z,12.42
2018-05-09T04:00:10.064Z,12.49
2018-05-09T04:01:10.057Z,12.49
2018-05-09T04:02:10.049Z,12.43
2018-05-09T04:03:10.040Z,12.53
2018-05-09T04:04:10.033Z,12.40
2018-05-09T04:05:10.025Z,12.45
2018-05-09T04:06:10.018Z,12.55
2018-05-09T04:07:10.010Z,12.50
2018-05-09T04:08:10.001Z,12.50
2018-05-09T04:09:09.994Z,12.50
2018-05-09T04:10:09.987Z,12.57
2018-05-09T04:11:09.979Z,12.50
2018-05-09T04:12:09.971Z,12.42
2018-05-09T04:13:10.052Z,12.22
2018-05-09T04:14:09.956Z,12.17
2018-05-09T04:15:09.949Z,12.10
2018-05-09T04:16:09.941Z,12.07
2018-05-09T04:17:09.935Z,12.00
2018-05-09T04:18:09.929Z,12.02
2018-05-09T04:19:09.917Z,12.04
2018-05-09T04:20:09.910Z,12.03
2018-05-09T04:21:09.903Z,12.00
2018-05-09T04:22:09.895Z,12.03
2018-05-09T04:23:09.888Z,12.10
2018-05-09T04:24:09.880Z,12.24
2018-05-09T04:25:09.873Z,12.31
2018-05-09T04:26:09.866Z,12.29
2018-05-09T04:27:09.858Z,12.32
2018-05-09T04:28:09.925Z,12.27
2018-05-09T04:29:09.843Z,12.36
2018-05-09T04:30:09.836Z,12.42
2018-05-09T04:31:09.828Z,12.45
2018-05-09T04:32:09.822Z,12.50
2018-05-09T04:33:09.813Z,12.54
2018-05-09T04:34:09.810Z,12.54
2018-05-09T04:35:09.800Z,12.55
2018-05-09T04:36:09.807Z,12.50
2018-05-09T04:37:09.784Z,12.55
2018-05-09T04:38:09.777Z,12.55
2018-05-09T04:39:09.773Z,12.57
2018-05-09T04:40:09.765Z,12.55
2018-05-09T04:41:09.754Z,12.53
2018-05-09T04:42:09.747Z,12.76
2018-05-09T04:43:09.739Z,12.86
2018-05-09T04:44:09.732Z,12.98
2018-05-09T04:45:09.725Z,13.11
2018-05-09T04:46:09.718Z,13.27
2018-05-09T04:47:09.713Z,13.28
2018-05-09T04:48:09.702Z,13.41
2018-05-09T04:49:09.700Z,13.39
2018-05-09T04:50:09.688Z,13.42
2018-05-09T04:51:09.680Z,13.52
2018-05-09T04:52:09.673Z,13.42
2018-05-09T04:53:09.675Z,13.47
2018-05-09T04:54:09.659Z,13.39
2018-05-09T04:55:09.651Z,13.42
2018-05-09T04:56:09.644Z,13.44
2018-05-09T04:57:09.638Z,13.44
2018-05-09T04:58:09.631Z,13.42
2018-05-09T04:59:09.623Z,13.44
2018-05-09T05:00:09.616Z,13.59
2018-05-09T05:01:09.610Z,13.63
2018-05-09T05:02:09.608Z,13.63
2018-05-09T05:03:09.596Z,13.79
2018-05-09T05:04:09.589Z,13.78
2018-05-09T05:05:09.582Z,13.89
2018-05-09T05:06:09.581Z,13.89
2018-05-09T05:07:09.576Z,13.90
2018-05-09T05:08:09.562Z,13.96
2018-05-09T05:09:09.556Z,14.04
2018-05-09T05:10:09.549Z,14.04
2018-05-09T05:11:09.541Z,14.08
2018-05-09T05:12:09.536Z,14.04
2018-05-09T05:13:09.530Z,14.17
2018-05-09T05:14:09.522Z,14.25
2018-05-09T05:15:09.515Z,14.30
2018-05-09T05:16:09.509Z,14.20
2018-05-09T05:17:09.502Z,14.29
2018-05-09T05:18:09.496Z,14.29
2018-05-09T05:19:09.490Z,14.29
2018-05-09T05:20:09.483Z,14.35
2018-05-09T05:21:09.476Z,14.43
2018-05-09T05:22:09.474Z,14.37
2018-05-09T05:23:09.469Z,14.51
2018-05-09T05:24:09.457Z,14.53
2018-05-09T05:25:09.451Z,14.53
2018-05-09T05:26:09.445Z,14.54
2018-05-09T05:27:09.502Z,14.59
2018-05-09T05:28:09.432Z,14.63
2018-05-09T05:29:09.426Z,14.72
2018-05-09T05:30:09.419Z,14.72
2018-05-09T05:31:09.417Z,14.70
2018-05-09T05:32:09.407Z,14.77
2018-05-09T05:33:09.401Z,14.88
2018-05-09T05:34:09.396Z,15.00
2018-05-09T05:35:09.389Z,15.00
2018-05-09T05:36:09.385Z,14.99
2018-05-09T05:37:09.377Z,15.09
2018-05-09T05:38:09.371Z,15.15
2018-05-09T05:39:09.366Z,15.17
2018-05-09T05:40:09.359Z,15.18
2018-05-09T05:41:09.353Z,15.25
2018-05-09T05:42:09.347Z,15.22
2018-05-09T05:43:09.341Z,15.33
2018-05-09T05:44:09.335Z,15.42
2018-05-09T05:45:09.420Z,15.51
2018-05-09T05:46:09.325Z,15.52
2018-05-09T05:47:09.318Z,15.55
2018-05-09T05:48:09.313Z,15.61
2018-05-09T05:49:09.308Z,15.65
2018-05-09T05:50:09.302Z,15.77
2018-05-09T05:51:09.298Z,15.75
2018-05-09T05:52:09.291Z,15.86
2018-05-09T05:53:09.286Z,15.94
2018-05-09T05:54:09.283Z,15.97
2018-05-09T05:55:09.280Z,16.08
2018-05-09T05:56:09.333Z,16.10
2018-05-09T05:57:09.266Z,16.10
2018-05-09T05:58:09.260Z,16.05
2018-05-09T05:59:09.254Z,16.26
2018-05-09T06:00:09.249Z,16.23
2018-05-09T06:01:09.244Z,16.32
2018-05-09T06:02:09.243Z,16.23
2018-05-09T06:03:09.235Z,16.23
2018-05-09T06:04:09.229Z,16.23
2018-05-09T06:05:09.225Z,16.24
2018-05-09T06:06:09.219Z,16.36
2018-05-09T06:07:09.213Z,16.39
2018-05-09T06:08:09.210Z,16.36
2018-05-09T06:09:09.213Z,16.47
2018-05-09T06:10:09.198Z,16.43
2018-05-09T06:11:09.192Z,16.54
2018-05-09T06:12:09.192Z,16.58
2018-05-09T06:13:09.183Z,16.66
2018-05-09T06:14:09.178Z,16.68
2018-05-09T06:15:09.172Z,16.66
2018-05-09T06:16:09.168Z,16.83
2018-05-09T06:17:09.199Z,16.76
2018-05-09T06:18:09.158Z,16.83
2018-05-09T06:19:09.152Z,16.93
2018-05-09T06:20:09.147Z,17.01
2018-05-09T06:21:09.145Z,17.02
2018-05-09T06:22:09.139Z,17.09
2018-05-09T06:23:09.133Z,17.14
2018-05-09T06:24:09.204Z,17.16
2018-05-09T06:25:09.124Z,17.24
2018-05-09T06:26:09.121Z,17.27
2018-05-09T06:27:09.114Z,17.39
2018-05-09T06:28:09.110Z,17.34
2018-05-09T06:29:09.106Z,17.38
2018-05-09T06:30:09.102Z,17.46
2018-05-09T06:31:09.097Z,17.51
2018-05-09T06:32:09.092Z,17.51
2018-05-09T06:33:09.089Z,17.63
2018-05-09T06:34:09.096Z,17.59
2018-05-09T06:35:09.083Z,17.72
2018-05-09T06:36:09.075Z,17.78
2018-05-09T06:37:09.073Z,17.78
2018-05-09T06:38:09.068Z,17.85
2018-05-09T06:39:09.063Z,17.92
2018-05-09T06:40:09.063Z,17.94
2018-05-09T06:41:09.056Z,18.01
2018-05-09T06:42:09.052Z,17.94
2018-05-09T06:43:09.047Z,17.90
2018-05-09T06:44:09.044Z,18.08
2018-05-09T06:45:09.040Z,18.05
2018-05-09T06:46:09.037Z,18.13
2018-05-09T06:47:09.032Z,18.16
2018-05-09T06:48:09.031Z,18.16
2018-05-09T06:49:09.026Z,18.19
2018-05-09T06:50:09.022Z,18.34
2018-05-09T06:51:09.017Z,18.31
2018-05-09T06:52:09.014Z,18.34
2018-05-09T06:53:09.011Z,18.44
2018-05-09T06:54:09.007Z,18.38
2018-05-09T06:55:09.003Z,18.44
2018-05-09T06:56:09.000Z,18.44
2018-05-09T06:57:08.996Z,18.49
2018-05-09T06:58:08.995Z,18.52
2018-05-09T06:59:09.065Z,18.62
2018-05-09T07:00:08.987Z,18.56
2018-05-09T07:01:08.985Z,18.55
2018-05-09T07:02:08.981Z,18.60
2018-05-09T07:03:08.979Z,18.66
2018-05-09T07:04:08.974Z,18.80
2018-05-09T07:05:08.972Z,18.80
2018-05-09T07:06:09.042Z,18.93
2018-05-09T07:07:08.970Z,19.02
2018-05-09T07:08:08.964Z,18.98
2018-05-09T07:09:08.963Z,19.11
2018-05-09T07:10:08.962Z,19.12
2018-05-09T07:11:08.960Z,19.16
2018-05-09T07:12:08.959Z,19.30
2018-05-09T07:13:08.960Z,19.40
2018-05-09T07:14:08.960Z,19.41
2018-05-09T07:15:08.960Z,19.62
2018-05-09T07:16:08.962Z,19.67
2018-05-09T07:17:08.964Z,19.71
2018-05-09T07:18:08.967Z,19.92
2018-05-09T07:19:08.969Z,19.99
2018-05-09T07:20:08.971Z,20.02
2018-05-09T07:21:08.975Z,20.04
2018-05-09T07:22:09.024Z,20.21
2018-05-09T07:23:09.016Z,20.47
2018-05-09T07:24:08.989Z,20.66
2018-05-09T07:25:09.003Z,20.72
2018-05-09T07:26:08.997Z,20.90
2018-05-09T07:27:09.001Z,20.85
2018-05-09T07:28:09.010Z,20.97
2018-05-09T07:29:09.014Z,20.96
2018-05-09T07:30:09.020Z,21.27
2018-05-09T07:31:09.026Z,21.45
2018-05-09T07:32:09.036Z,21.50
2018-05-09T07:33:09.040Z,21.66
2018-05-09T07:34:09.048Z,21.82
2018-05-09T07:35:09.061Z,21.83
2018-05-09T07:36:09.063Z,22.00
2018-05-09T07:37:09.071Z,22.02
2018-05-09T07:38:09.079Z,22.07
2018-05-09T07:39:09.087Z,21.95
2018-05-09T07:40:09.096Z,21.85
2018-05-09T07:41:09.104Z,21.88
2018-05-09T07:42:09.162Z,21.98
2018-05-09T07:43:09.121Z,22.07
2018-05-09T07:44:09.130Z,22.18
2018-05-09T07:45:09.139Z,22.25
2018-05-09T07:46:09.150Z,22.20
2018-05-09T07:47:09.158Z,22.38
2018-05-09T07:48:09.167Z,22.51
2018-05-09T07:49:09.177Z,22.65
2018-05-09T07:50:09.190Z,22.68
2018-05-09T07:51:09.196Z,22.85
2018-05-09T07:52:09.206Z,22.94
2018-05-09T07:53:09.217Z,23.17
2018-05-09T07:54:09.227Z,23.40
2018-05-09T07:55:09.237Z,23.69
2018-05-09T07:56:09.250Z,23.78
2018-05-09T07:57:09.258Z,23.83
2018-05-09T07:58:09.270Z,23.98
2018-05-09T07:59:09.281Z,24.05
2018-05-09T08:00:09.292Z,24.18
2018-05-09T08:01:09.304Z,24.24
2018-05-09T08:02:09.316Z,24.51
2018-05-09T08:03:09.326Z,24.81
2018-05-09T08:04:09.338Z,24.89
2018-05-09T08:05:09.350Z,24.95
2018-05-09T08:06:09.382Z,25.08
2018-05-09T08:07:09.375Z,25.25
2018-05-09T08:08:09.385Z,25.22
2018-05-09T08:09:09.398Z,25.23
2018-05-09T08:10:09.410Z,25.22
2018-05-09T08:11:09.422Z,25.35
2018-05-09T08:12:09.437Z,25.46
2018-05-09T08:13:09.450Z,25.62
2018-05-09T08:14:09.461Z,25.68
2018-05-09T08:15:09.473Z,25.87
2018-05-09T08:16:09.487Z,25.65
2018-05-09T08:17:09.500Z,25.84
2018-05-09T08:18:09.513Z,25.99
2018-05-09T08:19:09.526Z,26.07
2018-05-09T08:20:09.538Z,26.03
2018-05-09T08:21:09.552Z,26.10
2018-05-09T08:22:09.565Z,26.29
2018-05-09T08:23:09.578Z,26.51
2018-05-09T08:24:09.592Z,26.68
2018-05-09T08:25:09.610Z,26.90
2018-05-09T08:26:09.620Z,26.89
2018-05-09T08:27:09.633Z,26.80
2018-05-09T08:28:09.647Z,26.88
2018-05-09T08:29:09.662Z,26.71
2018-05-09T08:30:09.675Z,26.65
2018-05-09T08:31:09.689Z,26.38
2018-05-09T08:32:09.703Z,26.25
2018-05-09T08:33:09.717Z,26.18
2018-05-09T08:34:09.730Z,26.22
2018-05-09T08:35:09.743Z,26.48
2018-05-09T08:36:09.799Z,26.65
2018-05-09T08:37:09.773Z,26.70
2018-05-09T08:38:09.786Z,26.26
2018-05-09T08:39:09.806Z,26.16
2018-05-09T08:40:09.816Z,26.25
2018-05-09T08:41:09.828Z,26.38
2018-05-09T08:42:09.843Z,26.41
2018-05-09T08:43:09.897Z,26.56
2018-05-09T08:44:09.871Z,26.90
2018-05-09T08:45:09.886Z,26.97
2018-05-09T08:46:09.907Z,27.26
2018-05-09T08:47:09.915Z,27.42
2018-05-09T08:48:09.930Z,27.45
2018-05-09T08:49:09.949Z,27.35
2018-05-09T08:50:09.964Z,27.14
2018-05-09T08:51:09.975Z,27.20
2018-05-09T08:52:09.990Z,27.35
2018-05-09T08:53:10.006Z,27.14
2018-05-09T08:54:10.021Z,27.20
2018-05-09T08:55:10.036Z,27.39
2018-05-09T08:56:10.051Z,27.54
2018-05-09T08:57:10.068Z,27.74
2018-05-09T08:58:10.083Z,27.89
2018-05-09T08:59:10.099Z,28.19
2018-05-09T09:00:10.113Z,28.22
2018-05-09T09:01:10.129Z,28.19
2018-05-09T09:02:10.146Z,28.44
2018-05-09T09:03:10.161Z,28.57
2018-05-09T09:04:10.177Z,28.69
2018-05-09T09:05:10.194Z,28.82
2018-05-09T09:06:10.210Z,29.08
2018-05-09T09:07:10.225Z,28.88
2018-05-09T09:08:10.242Z,28.64
2018-05-09T09:09:10.258Z,28.60
2018-05-09T09:10:10.274Z,28.78
2018-05-09T09:11:10.290Z,28.74
2018-05-09T09:12:10.306Z,28.81
2018-05-09T09:13:10.323Z,28.79
2018-05-09T09:14:10.339Z,28.75
2018-05-09T09:15:10.354Z,28.69
2018-05-09T09:16:10.371Z,28.78
2018-05-09T09:17:10.388Z,28.93
2018-05-09T09:18:10.402Z,29.01
2018-05-09T09:19:10.418Z,29.01
2018-05-09T09:20:10.439Z,28.93
2018-05-09T09:21:10.451Z,28.88
2018-05-09T09:22:10.467Z,29.20
2018-05-09T09:23:10.485Z,29.07
2018-05-09T09:24:10.499Z,29.04
2018-05-09T09:25:10.516Z,29.24
2018-05-09T09:26:10.533Z,29.51
2018-05-09T09:27:10.549Z,29.71
2018-05-09T09:28:10.566Z,29.95
2018-05-09T09:29:10.674Z,30.03
2018-05-09T09:30:10.607Z,29.87
2018-05-09T09:31:10.617Z,29.86
2018-05-09T09:32:10.641Z,29.98
2018-05-09T09:33:10.652Z,29.59
2018-05-09T09:34:10.670Z,29.73
2018-05-09T09:35:10.688Z,29.73
2018-05-09T09:36:10.704Z,29.45
2018-05-09T09:37:10.722Z,29.63
2018-05-09T09:38:10.740Z,29.79
2018-05-09T09:39:10.757Z,29.91
2018-05-09T09:40:10.775Z,29.95
2018-05-09T09:41:10.801Z,30.09
2018-05-09T09:42:10.811Z,30.34
2018-05-09T09:43:10.828Z,30.39
2018-05-09T09:44:10.846Z,29.97
2018-05-09T09:45:10.867Z,29.51
2018-05-09T09:46:10.882Z,29.24
2018-05-09T09:47:10.899Z,29.22
2018-05-09T09:48:10.920Z,29.41
2018-05-09T09:49:10.934Z,29.61
2018-05-09T09:50:10.952Z,29.84
2018-05-09T09:51:10.968Z,29.91
2018-05-09T09:52:10.987Z,30.10
2018-05-09T09:53:11.003Z,30.31
2018-05-09T09:54:11.021Z,30.47
2018-05-09T09:55:11.039Z,30.66
2018-05-09T09:56:11.056Z,30.77
2018-05-09T09:57:11.074Z,31.09
2018-05-09T09:58:11.093Z,30.97
2018-05-09T09:59:11.111Z,31.14
2018-05-09T10:00:11.129Z,31.15
2018-05-09T10:01:11.148Z,31.20
2018-05-09T10:02:11.166Z,31.20
2018-05-09T10:03:11.189Z,30.91
2018-05-09T10:04:11.203Z,30.87
2018-05-09T10:05:11.221Z,30.84
2018-05-09T10:06:11.241Z,30.65
2018-05-09T10:07:11.258Z,30.73
2018-05-09T10:08:11.330Z,30.75
2018-05-09T10:09:11.296Z,30.75
2018-05-09T10:10:11.314Z,30.75
2018-05-09T10:11:11.333Z,30.50
2018-05-09T10:12:11.352Z,30.27
2018-05-09T10:13:11.371Z,30.19
2018-05-09T10:14:11.389Z,29.98
2018-05-09T10:15:11.407Z,30.05
2018-05-09T10:16:11.503Z,30.06
2018-05-09T10:17:11.445Z,30.16
2018-05-09T10:18:11.465Z,29.94
2018-05-09T10:19:11.486Z,29.82
2018-05-09T10:20:11.504Z,29.87
2018-05-09T10:21:11.522Z,29.97
2018-05-09T10:22:11.538Z,30.06
2018-05-09T10:23:11.567Z,30.00
2018-05-09T10:24:11.574Z,30.09
2018-05-09T10:25:11.593Z,30.19
2018-05-09T10:26:11.611Z,30.09
2018-05-09T10:27:11.629Z,29.98
2018-05-09T10:28:11.728Z,30.09
2018-05-09T10:29:11.666Z,30.24
2018-05-09T10:30:11.685Z,30.32
2018-05-09T10:31:11.702Z,30.48
2018-05-09T10:32:11.721Z,30.46
2018-05-09T10:33:11.740Z,30.50
2018-05-09T10:34:11.757Z,30.85
2018-05-09T10:35:11.776Z,30.91
2018-05-09T10:36:11.794Z,30.83
2018-05-09T10:37:11.813Z,30.62
2018-05-09T10:38:11.832Z,30.59
2018-05-09T10:39:11.849Z,30.72
2018-05-09T10:40:11.868Z,30.83
2018-05-09T10:41:11.888Z,30.97
2018-05-09T10:42:11.905Z,31.25
2018-05-09T10:43:11.923Z,31.22
2018-05-09T10:44:11.942Z,31.24
2018-05-09T10:45:11.960Z,31.31
2018-05-09T10:46:11.979Z,31.54
2018-05-09T10:47:11.999Z,31.47
2018-05-09T10:48:12.016Z,31.17
2018-05-09T10:49:12.035Z,31.14
2018-05-09T10:50:12.054Z,31.05
2018-05-09T10:51:12.079Z,30.96
2018-05-09T10:52:12.091Z,31.00
2018-05-09T10:53:12.110Z,31.20
2018-05-09T10:54:12.129Z,31.18
2018-05-09T10:55:12.149Z,31.17
2018-05-09T10:56:12.167Z,31.07
2018-05-09T10:57:12.192Z,31.18
2018-05-09T10:58:12.205Z,31.55
2018-05-09T10:59:12.223Z,31.73
2018-05-09T11:00:12.249Z,31.69
2018-05-09T11:01:12.263Z,31.71
2018-05-09T11:02:12.281Z,31.74
2018-05-09T11:03:12.300Z,31.40
2018-05-09T11:04:12.319Z,31.21
2018-05-09T11:05:12.488Z,31.14
2018-05-09T11:06:12.358Z,31.22
2018-05-09T11:07:12.376Z,31.22
2018-05-09T11:08:12.395Z,31.37
2018-05-09T11:09:12.414Z,31.29
2018-05-09T11:10:12.433Z,31.15
2018-05-09T11:11:12.451Z,31.18
2018-05-09T11:12:12.470Z,31.24
2018-05-09T11:13:12.489Z,31.27
2018-05-09T11:14:12.508Z,31.27
2018-05-09T11:15:12.529Z,31.18
2018-05-09T11:16:12.544Z,30.69
2018-05-09T11:17:12.566Z,30.66
2018-05-09T11:18:12.583Z,30.63
2018-05-09T11:19:12.600Z,30.81
2018-05-09T11:20:12.621Z,30.88
2018-05-09T11:21:12.638Z,31.09
2018-05-09T11:22:12.656Z,31.22
2018-05-09T11:23:12.677Z,31.20
2018-05-09T11:24:12.692Z,31.25
2018-05-09T11:25:12.711Z,31.22
2018-05-09T11:26:12.734Z,31.29
2018-05-09T11:27:12.748Z,31.34
2018-05-09T11:28:12.770Z,31.37
2018-05-09T11:29:12.789Z,31.42
2018-05-09T11:30:12.803Z,31.39
2018-05-09T11:31:12.821Z,31.64
2018-05-09T11:32:12.839Z,31.87
2018-05-09T11:33:12.858Z,32.07
2018-05-09T11:34:12.876Z,32.21
2018-05-09T11:35:12.898Z,32.43
2018-05-09T11:36:12.921Z,32.63
2018-05-09T11:37:12.932Z,32.83
2018-05-09T11:38:12.950Z,32.63
2018-05-09T11:39:12.975Z,32.55
2018-05-09T11:40:12.987Z,32.09
2018-05-09T11:41:13.005Z,32.14
2018-05-09T11:42:13.025Z,32.14
2018-05-09T11:43:13.042Z,32.09
2018-05-09T11:44:13.062Z,31.73
2018-05-09T11:45:13.080Z,31.66
2018-05-09T11:46:13.098Z,31.55
2018-05-09T11:47:13.116Z,31.80
2018-05-09T11:48:13.134Z,32.08
2018-05-09T11:49:13.153Z,32.19
2018-05-09T11:50:13.171Z,32.37
2018-05-09T11:51:13.189Z,32.63
2018-05-09T11:52:13.207Z,32.48
2018-05-09T11:53:13.261Z,32.43
2018-05-09T11:54:13.244Z,32.65
2018-05-09T11:55:13.262Z,32.86
2018-05-09T11:56:13.280Z,32.87
2018-05-09T11:57:13.298Z,32.90
2018-05-09T11:58:13.317Z,33.05
2018-05-09T11:59:13.334Z,33.05
2018-05-09T12:00:13.353Z,33.05
2018-05-09T12:01:13.371Z,33.04
2018-05-09T12:02:13.486Z,33.23
2018-05-09T12:03:13.408Z,33.23
2018-05-09T12:04:13.427Z,33.20
2018-05-09T12:05:13.445Z,33.02
2018-05-09T12:06:13.463Z,32.85
2018-05-09T12:07:13.481Z,32.60
2018-05-09T12:08:13.499Z,32.40
2018-05-09T12:09:13.517Z,32.65
2018-05-09T12:10:13.535Z,32.90
2018-05-09T12:11:13.552Z,33.12
2018-05-09T12:12:13.571Z,33.22
2018-05-09T12:13:13.593Z,33.31
2018-05-09T12:14:13.607Z,32.68
2018-05-09T12:15:13.624Z,32.64
2018-05-09T12:16:13.642Z,32.73
2018-05-09T12:17:13.660Z,32.90
2018-05-09T12:18:13.678Z,33.12
2018-05-09T12:19:13.695Z,33.08
2018-05-09T12:20:13.713Z,32.86
2018-05-09T12:21:13.731Z,32.89
2018-05-09T12:22:13.749Z,32.90
2018-05-09T12:23:13.766Z,32.70
2018-05-09T12:24:13.783Z,32.55
2018-05-09T12:25:13.801Z,32.83
2018-05-09T12:26:13.819Z,32.59
2018-05-09T12:27:13.835Z,32.45
2018-05-09T12:28:13.853Z,32.51
2018-05-09T12:29:13.870Z,32.77
2018-05-09T12:30:13.887Z,32.68
2018-05-09T12:31:13.903Z,32.56
2018-05-09T12:32:13.920Z,32.67
2018-05-09T12:33:13.938Z,32.89
2018-05-09T12:34:13.955Z,33.04
2018-05-09T12:35:13.973Z,33.30
2018-05-09T12:36:13.988Z,33.49
2018-05-09T12:37:14.005Z,33.90
2018-05-09T12:38:14.022Z,34.20
2018-05-09T12:39:14.039Z,34.35
2018-05-09T12:40:14.055Z,34.21
2018-05-09T12:41:14.079Z,34.18
2018-05-09T12:42:14.090Z,33.89
2018-05-09T12:43:14.104Z,33.47
2018-05-09T12:44:14.122Z,33.39
2018-05-09T12:45:14.138Z,33.14
2018-05-09T12:46:14.155Z,33.15
2018-05-09T12:47:14.172Z,33.19
2018-05-09T12:48:14.186Z,33.42
2018-05-09T12:49:14.206Z,33.32
2018-05-09T12:50:14.220Z,33.37
2018-05-09T12:51:14.235Z,33.52
2018-05-09T12:52:14.251Z,33.68